Kezdőlap
METAR-TAF:

METAR-TAF

Repülőterek :

Tri-County Regional Airport

Lone Rock, Wisconsin, Amerikai Egyesült Államok

földrajzi szélesség: 43-12-43N, földrajzi hosszúság: 090-10-53W, magasság: 219 m

Jelenlegi meteorológiai megfigyelések

A jelentés 34 perccel ezelõtt készült, 08:13 UTC
Szélcsend
Hőmérséklet 21°C
Páratartalom 94%
Légköri nyomás 1012 hPa
Látótávolság: 4.0 km
Kevés felhő 700 lábon
Párásság

METAR: KLNR 100813Z AUTO 00000KT 2 1/2SM BR FEW007 21/20 A2989 RMK AO2 T02060200

Idő: 03:47 (08:47 UTC)


TAF: hiányzik

Meteorológiai megfigyelések és előrejelzések több, mint 4000 repülőtéren (METAR és TAF jelentéseket).

A térképen piros és sárga pontok jelzik az elérhető meteorológiai állomásokat.

Mozgassa az egeret a pont fölött, hogy megjelenjen az állomás neve.

Azután kattintson az időjárási megfigyelések és előrejelzések megtekintéséhez.

A térkép megváltoztatása: kattintson a fekete keresztel jelölt zöld gombra ráközelítéshez, a vonallal jelölt zöld gombra távolításhoz, vagy a zöld nyilakra a szomszédos térképek eléréséhez.


METAR-TAF: